createdAt,value
2019-02-28T00:00:55.666Z,100829.69
2019-02-28T00:03:26.121Z,100824.34
2019-02-28T00:05:53.654Z,100829.19
2019-02-28T00:08:21.217Z,100828.36
2019-02-28T00:10:48.911Z,100828.91
2019-02-28T00:13:16.064Z,100832.07
2019-02-28T00:15:43.703Z,100829.92
2019-02-28T00:18:11.012Z,100831.78
2019-02-28T00:20:38.382Z,100831.81
2019-02-28T00:23:05.911Z,100834.88
2019-02-28T00:25:37.759Z,100825.55
2019-02-28T00:28:03.556Z,100820.30
2019-02-28T00:30:31.217Z,100821.03
2019-02-28T00:32:59.981Z,100820.01
2019-02-28T00:35:27.298Z,100812.97
2019-02-28T00:37:56.748Z,100809.05
2019-02-28T00:40:25.158Z,100807.06
2019-02-28T00:42:53.631Z,100802.37
2019-02-28T00:45:24.138Z,100801.16
2019-02-28T00:47:51.676Z,100801.71
2019-02-28T00:50:19.134Z,100804.55
2019-02-28T00:52:46.539Z,100797.33
2019-02-28T00:55:15.255Z,100793.80
2019-02-28T00:57:43.344Z,100794.45
2019-02-28T01:00:12.055Z,100789.25
2019-02-28T01:02:39.403Z,100780.83
2019-02-28T01:05:07.319Z,100780.71
2019-02-28T01:07:34.822Z,100776.33
2019-02-28T01:10:05.265Z,100776.97
2019-02-28T01:12:32.614Z,100776.33
2019-02-28T01:15:00.328Z,100773.61
2019-02-28T01:17:28.456Z,100778.72
2019-02-28T01:19:55.718Z,100768.61
2019-02-28T01:22:23.301Z,100770.30
2019-02-28T01:24:50.863Z,100769.13
2019-02-28T01:27:20.875Z,100767.45
2019-02-28T01:29:48.040Z,100764.09
2019-02-28T01:32:16.366Z,100761.75
2019-02-28T01:34:44.187Z,100760.41
2019-02-28T01:37:11.584Z,100756.53
2019-02-28T01:39:39.221Z,100758.87
2019-02-28T01:42:06.728Z,100757.20
2019-02-28T01:44:35.865Z,100755.86
2019-02-28T01:47:03.591Z,100754.51
2019-02-28T01:49:31.231Z,100747.61
2019-02-28T01:51:58.706Z,100739.48
2019-02-28T01:54:30.578Z,100735.60
2019-02-28T01:56:58.831Z,100733.92
2019-02-28T01:59:26.470Z,100725.66
2019-02-28T02:01:54.102Z,100726.48
2019-02-28T02:04:22.094Z,100716.97
2019-02-28T02:06:50.188Z,100718.69
2019-02-28T02:09:17.572Z,100716.89
2019-02-28T02:11:45.353Z,100716.39
2019-02-28T02:14:13.858Z,100713.57
2019-02-28T02:16:44.288Z,100716.80
2019-02-28T02:19:17.514Z,100709.38
2019-02-28T02:21:41.429Z,100703.51
2019-02-28T02:24:08.696Z,100709.73
2019-02-28T02:26:36.081Z,100697.43
2019-02-28T02:29:03.728Z,100697.13
2019-02-28T02:31:31.277Z,100697.47
2019-02-28T02:33:58.983Z,100692.23
2019-02-28T02:36:26.613Z,100691.23
2019-02-28T02:38:54.387Z,100692.28
2019-02-28T02:41:22.204Z,100692.94
2019-02-28T02:43:50.219Z,100688.39
2019-02-28T02:46:20.183Z,100678.30
2019-02-28T02:48:47.806Z,100674.93
2019-02-28T02:51:15.475Z,100676.30
2019-02-28T02:53:43.469Z,100681.69
2019-02-28T02:56:11.073Z,100677.30
2019-02-28T02:58:38.780Z,100681.85
2019-02-28T03:01:06.269Z,100663.67
2019-02-28T03:03:33.760Z,100667.89
2019-02-28T03:06:01.302Z,100666.03
2019-02-28T03:08:36.075Z,100663.86
2019-02-28T03:10:59.042Z,100663.34
2019-02-28T03:13:27.152Z,100659.66
2019-02-28T03:16:06.662Z,100657.31
2019-02-28T03:18:35.257Z,100661.50
2019-02-28T03:21:03.775Z,100659.81
2019-02-28T03:23:37.853Z,100655.44
2019-02-28T03:26:05.717Z,100645.72
2019-02-28T03:28:32.025Z,100650.74
2019-02-28T03:31:11.979Z,100642.86
2019-02-28T03:33:29.735Z,100643.87
2019-02-28T03:35:57.860Z,100642.85
2019-02-28T03:38:25.237Z,100641.83
2019-02-28T03:40:52.743Z,100641.50
2019-02-28T03:43:20.458Z,100634.63
2019-02-28T03:45:47.795Z,100631.77
2019-02-28T03:48:15.791Z,100636.80
2019-02-28T03:50:43.513Z,100633.42
2019-02-28T03:53:11.202Z,100640.16
2019-02-28T03:55:40.837Z,100633.95
2019-02-28T03:58:08.324Z,100634.28
2019-02-28T04:00:39.446Z,100629.55
2019-02-28T04:03:07.946Z,100629.89
2019-02-28T04:05:36.054Z,100621.99
2019-02-28T04:08:04.033Z,100617.31
2019-02-28T04:10:31.703Z,100621.00
2019-02-28T04:12:59.506Z,100620.66
2019-02-28T04:15:27.899Z,100619.15
2019-02-28T04:17:55.839Z,100610.42
2019-02-28T04:20:23.762Z,100620.32
2019-02-28T04:22:58.772Z,100611.91
2019-02-28T04:25:24.066Z,100620.46
2019-02-28T04:27:50.198Z,100618.62
2019-02-28T04:30:17.907Z,100619.48
2019-02-28T04:32:45.884Z,100625.52
2019-02-28T04:35:13.641Z,100619.63
2019-02-28T04:37:45.489Z,100622.81
2019-02-28T04:40:10.891Z,100619.30
2019-02-28T04:42:38.986Z,100618.62
2019-02-28T04:45:08.694Z,100617.95
2019-02-28T04:47:37.304Z,100618.30
2019-02-28T04:50:05.825Z,100610.55
2019-02-28T04:52:33.506Z,100611.57
2019-02-28T04:55:02.613Z,100614.09
2019-02-28T04:57:30.726Z,100612.23
2019-02-28T04:59:58.428Z,100613.07
2019-02-28T05:02:26.423Z,100610.38
2019-02-28T05:04:53.994Z,100610.58
2019-02-28T05:07:26.211Z,100605.53
2019-02-28T05:09:52.986Z,100607.89
2019-02-28T05:12:20.277Z,100605.84
2019-02-28T05:14:47.987Z,100602.83
2019-02-28T05:17:16.024Z,100605.84
2019-02-28T05:19:43.454Z,100601.66
2019-02-28T05:22:10.737Z,100613.22
2019-02-28T05:24:39.452Z,100606.52
2019-02-28T05:27:07.760Z,100615.25
2019-02-28T05:29:34.929Z,100609.84
2019-02-28T05:32:02.782Z,100603.98
2019-02-28T05:34:30.205Z,100608.55
2019-02-28T05:36:57.642Z,100605.67
2019-02-28T05:39:25.149Z,100613.44
2019-02-28T05:41:52.551Z,100611.75
2019-02-28T05:44:21.341Z,100602.69
2019-02-28T05:46:49.019Z,100608.39
2019-02-28T05:49:17.214Z,100609.91
2019-02-28T05:51:44.621Z,100609.73
2019-02-28T05:54:15.969Z,100615.95
2019-02-28T05:56:42.647Z,100618.99
2019-02-28T05:59:10.290Z,100622.81
2019-02-28T06:01:38.026Z,100612.91
2019-02-28T06:04:05.649Z,100623.49
2019-02-28T06:06:33.014Z,100629.89
2019-02-28T06:09:00.953Z,100630.37
2019-02-28T06:11:34.523Z,100631.05
2019-02-28T06:13:58.290Z,100645.81
2019-02-28T06:16:25.985Z,100644.64
2019-02-28T06:18:53.789Z,100638.45
2019-02-28T06:21:23.414Z,100642.14
2019-02-28T06:23:51.143Z,100641.84
2019-02-28T06:26:18.323Z,100641.63
2019-02-28T06:28:46.055Z,100638.80
2019-02-28T06:31:14.552Z,100644.52
2019-02-28T06:33:43.555Z,100649.23
2019-02-28T06:36:11.274Z,100649.73
2019-02-28T06:38:39.089Z,100644.85
2019-02-28T06:41:07.702Z,100645.87
2019-02-28T06:43:36.198Z,100646.87
2019-02-28T06:46:04.541Z,100650.86
2019-02-28T06:48:31.814Z,100641.97
2019-02-28T06:50:59.133Z,100639.94
2019-02-28T06:53:31.053Z,100651.19
2019-02-28T06:55:58.278Z,100639.70
2019-02-28T06:58:25.407Z,100640.66
2019-02-28T07:00:53.183Z,100640.84
2019-02-28T07:03:20.451Z,100635.09
2019-02-28T07:05:47.912Z,100644.33
2019-02-28T07:08:15.592Z,100651.16
2019-02-28T07:10:45.022Z,100646.87
2019-02-28T07:13:13.082Z,100646.78
2019-02-28T07:15:41.121Z,100655.49
2019-02-28T07:18:08.909Z,100653.52
2019-02-28T07:20:36.703Z,100660.38
2019-02-28T07:23:04.240Z,100659.95
2019-02-28T07:25:33.126Z,100662.91
2019-02-28T07:28:01.561Z,100655.45
2019-02-28T07:30:30.232Z,100659.64
2019-02-28T07:32:57.984Z,100656.27
2019-02-28T07:35:25.348Z,100664.63
2019-02-28T07:37:54.390Z,100669.19
2019-02-28T07:40:22.243Z,100671.20
2019-02-28T07:42:50.100Z,100666.76
2019-02-28T07:45:17.607Z,100665.12
2019-02-28T07:47:45.267Z,100653.91
2019-02-28T07:50:12.848Z,100649.73
2019-02-28T07:52:40.529Z,100649.20
2019-02-28T07:55:13.781Z,100649.15
2019-02-28T07:57:41.828Z,100651.33
2019-02-28T08:00:18.297Z,100646.41
2019-02-28T08:02:44.268Z,100644.91
2019-02-28T08:05:12.226Z,100648.45
2019-02-28T08:07:39.778Z,100651.99
2019-02-28T08:10:12.737Z,100641.19
2019-02-28T08:12:39.831Z,100644.19
2019-02-28T08:15:14.729Z,100643.92
2019-02-28T08:17:43.889Z,100640.26
2019-02-28T08:20:15.322Z,100634.00
2019-02-28T08:22:43.296Z,100634.30
2019-02-28T08:25:11.615Z,100632.54
2019-02-28T08:27:39.561Z,100642.52
2019-02-28T08:30:11.892Z,100632.78
2019-02-28T08:32:42.910Z,100626.95
2019-02-28T08:35:10.032Z,100623.33
2019-02-28T08:37:37.800Z,100616.05
2019-02-28T08:40:08.364Z,100620.28
2019-02-28T08:42:39.636Z,100614.83
2019-02-28T08:45:06.440Z,100609.18
2019-02-28T08:47:33.811Z,100622.86
2019-02-28T08:50:01.598Z,100619.56
2019-02-28T08:52:29.085Z,100618.70
2019-02-28T08:54:56.554Z,100619.13
2019-02-28T08:57:25.665Z,100617.16
2019-02-28T08:59:56.374Z,100620.52
2019-02-28T09:02:23.177Z,100609.91
2019-02-28T09:04:54.636Z,100607.48
2019-02-28T09:07:22.166Z,100612.67
2019-02-28T09:09:49.751Z,100619.13
2019-02-28T09:12:17.516Z,100623.27
2019-02-28T09:14:45.347Z,100608.59
2019-02-28T09:17:15.919Z,100601.25
2019-02-28T09:19:43.506Z,100590.09
2019-02-28T09:22:11.030Z,100589.02
2019-02-28T09:24:38.667Z,100579.28
2019-02-28T09:27:05.981Z,100584.44
2019-02-28T09:29:33.493Z,100579.49
2019-02-28T09:32:01.152Z,100576.32
2019-02-28T09:34:30.676Z,100584.98
2019-02-28T09:36:57.618Z,100578.95
2019-02-28T09:39:25.301Z,100581.16
2019-02-28T09:41:52.590Z,100572.25
2019-02-28T09:44:20.281Z,100568.15
2019-02-28T09:46:50.855Z,100561.64
2019-02-28T09:49:17.796Z,100565.59
2019-02-28T09:51:45.916Z,100564.36
2019-02-28T09:54:13.315Z,100565.76
2019-02-28T09:56:44.593Z,100564.41
2019-02-28T09:59:10.674Z,100574.34
2019-02-28T10:01:37.891Z,100565.81
2019-02-28T10:04:05.498Z,100562.24
2019-02-28T10:06:33.298Z,100575.22
2019-02-28T10:09:02.503Z,100570.80
2019-02-28T10:11:31.781Z,100560.02
2019-02-28T10:14:00.305Z,100555.06
2019-02-28T10:16:27.566Z,100551.19
2019-02-28T10:18:55.115Z,100547.03
2019-02-28T10:21:22.475Z,100546.14
2019-02-28T10:23:49.853Z,100554.98
2019-02-28T10:26:17.925Z,100550.47
2019-02-28T10:28:45.926Z,100553.23
2019-02-28T10:31:13.843Z,100544.03
2019-02-28T10:33:41.820Z,100535.89
2019-02-28T10:36:12.808Z,100544.03
2019-02-28T10:38:38.782Z,100535.66
2019-02-28T10:41:06.321Z,100532.77
2019-02-28T10:43:33.922Z,100542.99
2019-02-28T10:46:01.652Z,100539.98
2019-02-28T10:48:28.885Z,100533.98
2019-02-28T10:50:58.130Z,100527.67
2019-02-28T10:53:25.641Z,100530.68
2019-02-28T10:55:54.479Z,100529.63
2019-02-28T10:58:23.400Z,100518.91
2019-02-28T11:00:51.066Z,100517.12
2019-02-28T11:03:18.847Z,100511.27
2019-02-28T11:05:46.611Z,100515.91
2019-02-28T11:08:16.702Z,100521.20
2019-02-28T11:10:44.980Z,100515.20
2019-02-28T11:13:15.176Z,100517.36
2019-02-28T11:15:47.903Z,100513.81
2019-02-28T11:18:13.181Z,100504.68
2019-02-28T11:20:41.473Z,100506.70
2019-02-28T11:23:14.242Z,100507.26
2019-02-28T11:25:40.381Z,100505.23
2019-02-28T11:28:08.833Z,100516.27
2019-02-28T11:30:36.404Z,100498.49
2019-02-28T11:33:04.844Z,100493.64
2019-02-28T11:35:33.053Z,100499.17
2019-02-28T11:38:00.390Z,100481.64
2019-02-28T11:40:28.904Z,100488.33
2019-02-28T11:42:59.430Z,100496.92
2019-02-28T11:45:27.421Z,100492.77
2019-02-28T11:47:56.949Z,100489.16
2019-02-28T11:50:24.327Z,100478.41
2019-02-28T11:52:51.922Z,100482.50
2019-02-28T11:55:20.327Z,100489.09
2019-02-28T11:57:49.190Z,100479.17
2019-02-28T12:00:24.740Z,100475.31
2019-02-28T12:02:53.587Z,100481.70
2019-02-28T12:05:22.501Z,100473.88
2019-02-28T12:07:50.202Z,100469.95
2019-02-28T12:10:18.460Z,100458.03
2019-02-28T12:12:46.536Z,100455.82
2019-02-28T12:15:17.862Z,100458.26
2019-02-28T12:17:45.417Z,100453.48
2019-02-28T12:20:13.482Z,100453.56
2019-02-28T12:22:43.580Z,100449.25
2019-02-28T12:25:12.744Z,100446.39
2019-02-28T12:27:40.383Z,100443.37
2019-02-28T12:30:21.945Z,100437.83
2019-02-28T12:32:50.287Z,100435.96
2019-02-28T12:35:18.586Z,100427.88
2019-02-28T12:37:46.075Z,100419.28
2019-02-28T12:40:20.310Z,100412.73
2019-02-28T12:42:48.439Z,100407.67
2019-02-28T12:45:21.265Z,100410.47
2019-02-28T12:47:50.258Z,100403.45
2019-02-28T12:50:17.874Z,100408.45
2019-02-28T12:52:49.041Z,100399.33
2019-02-28T12:55:15.565Z,100409.16
2019-02-28T12:57:42.936Z,100405.81
2019-02-28T13:00:19.898Z,100400.50
2019-02-28T13:02:47.721Z,100394.34
2019-02-28T13:05:15.997Z,100388.14
2019-02-28T13:07:44.646Z,100388.75
2019-02-28T13:10:14.822Z,100389.23
2019-02-28T13:12:44.193Z,100385.61
2019-02-28T13:15:13.935Z,100374.84
2019-02-28T13:17:42.086Z,100376.28
2019-02-28T13:20:14.826Z,100368.54
2019-02-28T13:22:42.627Z,100371.25
2019-02-28T13:25:11.795Z,100373.97
2019-02-28T13:27:41.532Z,100364.52
2019-02-28T13:30:13.469Z,100368.36
2019-02-28T13:32:41.175Z,100365.77
2019-02-28T13:35:11.640Z,100354.00
2019-02-28T13:37:40.975Z,100353.80
2019-02-28T13:40:09.701Z,100348.38
2019-02-28T13:42:40.488Z,100349.76
2019-02-28T13:45:13.434Z,100345.02
2019-02-28T13:47:38.218Z,100349.03
2019-02-28T13:50:12.398Z,100336.97
2019-02-28T13:52:40.082Z,100341.33
2019-02-28T13:55:09.158Z,100335.83
2019-02-28T13:57:36.423Z,100323.35
2019-02-28T14:00:13.928Z,100322.74
2019-02-28T14:02:41.327Z,100319.91
2019-02-28T14:05:09.011Z,100319.92
2019-02-28T14:07:36.417Z,100306.37
2019-02-28T14:10:05.597Z,100304.91
2019-02-28T14:12:33.153Z,100304.11
2019-02-28T14:15:01.427Z,100304.20
2019-02-28T14:17:29.174Z,100303.27
2019-02-28T14:19:56.633Z,100296.36
2019-02-28T14:22:24.336Z,100304.53
2019-02-28T14:24:51.959Z,100307.50
2019-02-28T14:27:21.601Z,100293.59
2019-02-28T14:29:49.188Z,100293.77
2019-02-28T14:32:17.152Z,100289.86
2019-02-28T14:34:44.613Z,100290.73
2019-02-28T14:37:12.224Z,100280.34
2019-02-28T14:39:42.734Z,100273.11
2019-02-28T14:42:10.273Z,100265.42
2019-02-28T14:44:37.806Z,100270.52
2019-02-28T14:47:05.587Z,100268.64
2019-02-28T14:49:32.902Z,100259.57
2019-02-28T14:52:03.504Z,100268.33
2019-02-28T14:54:29.746Z,100258.06
2019-02-28T14:56:57.840Z,100268.25
2019-02-28T14:59:25.354Z,100268.56
2019-02-28T15:01:54.149Z,100268.23
2019-02-28T15:04:21.515Z,100265.74
2019-02-28T15:06:49.363Z,100273.41
2019-02-28T15:09:17.577Z,100270.58
2019-02-28T15:11:47.108Z,100265.59
2019-02-28T15:14:15.709Z,100267.31
2019-02-28T15:16:43.470Z,100275.06
2019-02-28T15:19:10.698Z,100273.68
2019-02-28T15:21:42.253Z,100274.06
2019-02-28T15:24:08.724Z,100287.86
2019-02-28T15:26:37.444Z,100278.41
2019-02-28T15:29:05.029Z,100276.20
2019-02-28T15:31:33.303Z,100281.73
2019-02-28T15:34:02.283Z,100285.64
2019-02-28T15:36:30.199Z,100291.13
2019-02-28T15:38:57.749Z,100292.06
2019-02-28T15:41:25.809Z,100285.16
2019-02-28T15:43:53.640Z,100296.81
2019-02-28T15:46:21.725Z,100290.82
2019-02-28T15:48:49.012Z,100300.27
2019-02-28T15:51:16.796Z,100292.84
2019-02-28T15:53:46.899Z,100295.61
2019-02-28T15:56:19.539Z,100294.91
2019-02-28T15:58:45.694Z,100291.94
2019-02-28T16:01:14.054Z,100284.00
2019-02-28T16:03:41.886Z,100280.71
2019-02-28T16:06:10.153Z,100273.83
2019-02-28T16:08:37.610Z,100266.60
2019-02-28T16:11:06.265Z,100267.36
2019-02-28T16:13:34.740Z,100273.43
2019-02-28T16:16:03.076Z,100269.84
2019-02-28T16:18:30.688Z,100266.85
2019-02-28T16:20:58.446Z,100263.87
2019-02-28T16:23:27.618Z,100265.98
2019-02-28T16:25:56.525Z,100276.47
2019-02-28T16:28:24.398Z,100277.03
2019-02-28T16:30:51.609Z,100283.73
2019-02-28T16:33:20.917Z,100279.34
2019-02-28T16:35:50.340Z,100281.77
2019-02-28T16:38:18.497Z,100284.53
2019-02-28T16:40:45.983Z,100289.55
2019-02-28T16:43:13.492Z,100291.26
2019-02-28T16:45:44.914Z,100296.59
2019-02-28T16:48:12.374Z,100294.22
2019-02-28T16:50:39.832Z,100302.81
2019-02-28T16:53:07.822Z,100297.08
2019-02-28T16:55:36.153Z,100327.30
2019-02-28T16:58:03.761Z,100315.95
2019-02-28T17:00:31.404Z,100331.77
2019-02-28T17:02:59.139Z,100345.61
2019-02-28T17:05:28.298Z,100345.66
2019-02-28T17:07:55.923Z,100350.64
2019-02-28T17:10:29.461Z,100347.64
2019-02-28T17:13:15.158Z,100374.11
2019-02-28T17:15:49.997Z,100382.12
2019-02-28T17:18:21.485Z,100402.03
2019-02-28T17:20:48.670Z,100397.91
2019-02-28T17:23:18.013Z,100407.59
2019-02-28T17:25:46.094Z,100424.19
2019-02-28T17:28:39.664Z,100428.88
2019-02-28T17:31:32.893Z,100418.12
2019-02-28T17:34:00.978Z,100443.23
2019-02-28T17:36:28.269Z,100455.39
2019-02-28T17:38:55.604Z,100457.87
2019-02-28T17:41:22.855Z,100464.52
2019-02-28T17:44:38.336Z,100461.19
2019-02-28T17:47:23.578Z,100465.05
2019-02-28T17:50:27.553Z,100459.23
2019-02-28T17:53:27.250Z,100475.80
2019-02-28T17:56:44.423Z,100472.77
2019-02-28T17:59:58.467Z,100460.81
2019-02-28T18:03:12.929Z,100481.23
2019-02-28T18:06:29.436Z,100474.84
2019-02-28T18:09:51.990Z,100476.47
2019-02-28T18:13:19.988Z,100488.36
2019-02-28T18:16:27.710Z,100496.84
2019-02-28T18:19:55.439Z,100490.48
2019-02-28T18:22:52.051Z,100484.91
2019-02-28T18:26:14.113Z,100488.22
2019-02-28T18:29:34.141Z,100492.04
2019-02-28T18:32:01.929Z,100488.15
2019-02-28T18:34:32.694Z,100498.88
2019-02-28T18:37:00.750Z,100491.69
2019-02-28T18:39:28.910Z,100501.05
2019-02-28T18:41:58.621Z,100502.66
2019-02-28T18:44:41.041Z,100500.70
2019-02-28T18:47:10.417Z,100494.05
2019-02-28T18:49:39.759Z,100491.06
2019-02-28T18:52:07.408Z,100489.37
2019-02-28T18:54:34.684Z,100491.25
2019-02-28T18:57:04.209Z,100489.59
2019-02-28T18:59:31.512Z,100498.36
2019-02-28T19:01:58.802Z,100495.75
2019-02-28T19:04:27.268Z,100481.30
2019-02-28T19:06:54.556Z,100488.26
2019-02-28T19:09:23.734Z,100477.98
2019-02-28T19:11:51.226Z,100477.92
2019-02-28T19:14:18.569Z,100474.63
2019-02-28T19:16:45.802Z,100480.13
2019-02-28T19:19:13.077Z,100480.06
2019-02-28T19:21:40.628Z,100476.16
2019-02-28T19:24:08.910Z,100476.09
2019-02-28T19:26:38.164Z,100476.58
2019-02-28T19:29:05.626Z,100476.52
2019-02-28T19:31:32.878Z,100482.27
2019-02-28T19:34:01.334Z,100478.52
2019-02-28T19:36:28.473Z,100486.66
2019-02-28T19:38:55.717Z,100482.66
2019-02-28T19:41:23.546Z,100484.80
2019-02-28T19:43:51.373Z,100492.77
2019-02-28T19:46:18.853Z,100499.22
2019-02-28T19:48:46.664Z,100503.55
2019-02-28T19:51:14.706Z,100494.22
2019-02-28T19:53:42.512Z,100492.49
2019-02-28T19:56:15.210Z,100496.55
2019-02-28T19:58:42.607Z,100488.90
2019-02-28T20:01:18.716Z,100485.25
2019-02-28T20:03:39.487Z,100481.59
2019-02-28T20:06:07.017Z,100485.36
2019-02-28T20:09:30.683Z,100488.91
2019-02-28T20:11:58.521Z,100492.00
2019-02-28T20:14:26.659Z,100489.91
2019-02-28T20:16:54.311Z,100492.72
2019-02-28T20:19:22.338Z,100480.75
2019-02-28T20:21:50.205Z,100482.02
2019-02-28T20:24:18.118Z,100480.31
2019-02-28T20:26:45.539Z,100485.16
2019-02-28T20:29:12.964Z,100479.02
2019-02-28T20:31:42.477Z,100474.73
2019-02-28T20:34:10.443Z,100468.79
2019-02-28T20:36:38.541Z,100470.14
2019-02-28T20:39:09.009Z,100468.48
2019-02-28T20:41:36.900Z,100471.86
2019-02-28T20:44:04.304Z,100458.82
2019-02-28T20:46:32.031Z,100462.62
2019-02-28T20:48:59.594Z,100472.32
2019-02-28T20:51:33.668Z,100463.44
2019-02-28T20:54:01.401Z,100465.55
2019-02-28T20:56:29.892Z,100463.28
2019-02-28T20:58:59.686Z,100465.06
2019-02-28T21:01:28.735Z,100452.16
2019-02-28T21:04:08.797Z,100454.23
2019-02-28T21:06:37.987Z,100452.06
2019-02-28T21:09:06.698Z,100445.48
2019-02-28T21:11:34.308Z,100448.66
2019-02-28T21:14:03.625Z,100445.32
2019-02-28T21:16:30.879Z,100456.55
2019-02-28T21:18:58.831Z,100448.69
2019-02-28T21:21:26.771Z,100448.03
2019-02-28T21:23:54.334Z,100446.66
2019-02-28T21:26:21.935Z,100449.89
2019-02-28T21:28:50.524Z,100445.55
2019-02-28T21:31:18.217Z,100443.78
2019-02-28T21:33:45.640Z,100439.75
2019-02-28T21:36:13.272Z,100440.47
2019-02-28T21:38:40.546Z,100436.69
2019-02-28T21:41:09.114Z,100441.18
2019-02-28T21:43:37.802Z,100448.13
2019-02-28T21:46:06.148Z,100443.06
2019-02-28T21:48:34.594Z,100448.62
2019-02-28T21:51:02.976Z,100435.71
2019-02-28T21:53:30.382Z,100446.23
2019-02-28T21:55:58.512Z,100439.89
2019-02-28T21:58:26.202Z,100448.69
2019-02-28T22:02:09.138Z,100434.95
2019-02-28T22:04:37.282Z,100427.44
2019-02-28T22:07:05.145Z,100425.33
2019-02-28T22:09:34.455Z,100424.21
2019-02-28T22:12:01.973Z,100417.61
2019-02-28T22:14:29.382Z,100415.97
2019-02-28T22:17:00.114Z,100412.58
2019-02-28T22:19:28.189Z,100406.14
2019-02-28T22:21:56.382Z,100411.20
2019-02-28T22:24:24.534Z,100411.77
2019-02-28T22:26:52.000Z,100412.77
2019-02-28T22:29:19.380Z,100407.29
2019-02-28T22:32:05.625Z,100401.48
2019-02-28T22:34:41.180Z,100397.67
2019-02-28T22:37:09.255Z,100397.38
2019-02-28T22:39:37.195Z,100388.66
2019-02-28T22:42:04.736Z,100382.42
2019-02-28T22:44:32.330Z,100378.31
2019-02-28T22:46:59.850Z,100381.39
2019-02-28T22:49:27.553Z,100375.72
2019-02-28T22:51:55.815Z,100378.94
2019-02-28T22:54:24.206Z,100369.74
2019-02-28T22:56:52.846Z,100367.00
2019-02-28T22:59:25.252Z,100373.17
2019-02-28T23:01:57.392Z,100366.91
2019-02-28T23:04:26.305Z,100358.02
2019-02-28T23:06:54.803Z,100352.13
2019-02-28T23:09:29.029Z,100356.02
2019-02-28T23:11:58.561Z,100351.11
2019-02-28T23:14:27.629Z,100351.43
2019-02-28T23:16:55.519Z,100349.30
2019-02-28T23:19:32.776Z,100340.28
2019-02-28T23:22:00.346Z,100343.98
2019-02-28T23:24:31.738Z,100339.65
2019-02-28T23:27:19.091Z,100336.43
2019-02-28T23:30:33.909Z,100331.97
2019-02-28T23:33:09.015Z,100330.61
2019-02-28T23:35:45.063Z,100321.63
2019-02-28T23:38:21.418Z,100316.34
2019-02-28T23:40:58.775Z,100318.22
2019-02-28T23:43:27.744Z,100317.67
2019-02-28T23:46:04.254Z,100321.56
2019-02-28T23:48:31.664Z,100312.48
2019-02-28T23:50:59.373Z,100314.30
2019-02-28T23:53:26.905Z,100314.66
2019-02-28T23:55:54.925Z,100305.89
2019-02-28T23:58:22.854Z,100306.88
